Time;durP1;ratioP1;P1;durP2;ratioP2;P2;SDS_P1;SDS_P2;PMS_P1;PMS_P2;Temp;Humidity;BMP_temperature;BMP_pressure;BME280_temperature;BME280_humidity;BME280_pressure;Samples;Min_cycle;Max_cycle;Signal;HPM_P1;HPM_P2
2023/01/21 00:00:20;;;;;;;;;34.33;26.67;;;;;3.16;77.84;102123.47;5139386;27;45191;-69
2023/01/21 00:02:45;;;;;;;;;30.00;24.67;;;;;3.12;77.71;102146.78;5138304;27;46767;-69
2023/01/21 00:05:10;;;;;;;;;27.00;21.67;;;;;3.05;77.84;102144.84;5139089;27;45426;-69
2023/01/21 00:07:36;;;;;;;;;26.67;22.00;;;;;2.91;77.17;102153.94;5139368;27;45369;-69
2023/01/21 00:10:01;;;;;;;;;36.33;30.67;;;;;2.86;78.38;102156.41;5137592;27;45300;-69
2023/01/21 00:12:27;;;;;;;;;33.00;26.33;;;;;2.87;78.82;102162.47;5139009;27;45397;-69
2023/01/21 00:14:52;;;;;;;;;34.67;29.33;;;;;2.69;78.47;102124.63;5139205;27;45409;-69
2023/01/21 00:17:17;;;;;;;;;30.00;23.67;;;;;2.87;78.77;102171.16;5132844;27;45525;-69
2023/01/21 00:19:43;;;;;;;;;34.00;28.67;;;;;2.67;79.06;102131.50;5137343;27;45199;-69
2023/01/21 00:22:08;;;;;;;;;32.67;28.67;;;;;2.93;79.25;102178.25;5138954;27;46194;-69
2023/01/21 00:24:34;;;;;;;;;35.33;29.00;;;;;2.94;78.71;102175.72;5138915;27;45438;-69
2023/01/21 00:26:59;;;;;;;;;37.00;29.67;;;;;2.92;79.45;102180.00;5138865;27;45358;-69
2023/01/21 00:29:25;;;;;;;;;37.00;26.33;;;;;2.91;79.28;102180.81;5132989;27;45697;-69
2023/01/21 00:31:50;;;;;;;;;36.00;34.33;;;;;2.92;79.41;102195.59;5136875;27;46420;-69
2023/01/21 00:34:16;;;;;;;;;37.33;30.00;;;;;2.91;79.89;102196.44;5138998;27;45462;-68
2023/01/21 00:36:41;;;;;;;;;33.00;28.00;;;;;2.95;79.80;102194.81;5138767;27;45538;-69
2023/01/21 00:39:07;;;;;;;;;43.67;36.00;;;;;2.98;79.33;102207.94;5139221;27;45245;-69
2023/01/21 00:41:32;;;;;;;;;49.67;34.33;;;;;2.92;79.28;102213.81;5138321;27;46163;-69
2023/01/21 00:43:58;;;;;;;;;41.00;35.33;;;;;2.85;79.88;102205.78;5138560;27;45500;-69
2023/01/21 00:46:23;;;;;;;;;37.33;31.00;;;;;2.88;79.65;102205.88;5138862;27;45471;-69
2023/01/21 00:48:48;;;;;;;;;41.33;36.00;;;;;2.90;79.74;102218.06;5137355;27;45518;-69
2023/01/21 00:51:14;;;;;;;;;45.00;34.00;;;;;2.96;79.69;102233.00;5138586;27;46020;-69
2023/01/21 00:53:43;;;;;;;;;33.33;30.00;;;;;2.94;79.37;102221.66;5134358;27;45321;-69
2023/01/21 00:56:11;;;;;;;;;39.67;36.00;;;;;2.91;79.85;102234.56;5097075;27;45509;-68
2023/01/21 00:58:37;;;;;;;;;43.67;36.33;;;;;2.92;80.03;102223.31;5097388;27;45485;-69
2023/01/21 01:01:08;;;;;;;;;51.67;37.00;;;;;2.90;80.00;102225.00;5096713;27;47242;-68
2023/01/21 01:03:35;;;;;;;;;45.33;34.67;;;;;2.83;80.20;102228.22;5097109;27;46199;-69
2023/01/21 01:06:05;;;;;;;;;45.00;31.33;;;;;2.89;80.04;102249.22;5097162;27;45177;-69
2023/01/21 01:08:31;;;;;;;;;40.33;35.67;;;;;2.88;80.09;102252.69;5097002;27;45313;-68
2023/01/21 01:10:57;;;;;;;;;55.33;38.33;;;;;2.90;80.56;102256.22;5124517;27;46445;-68
2023/01/21 01:13:22;;;;;;;;;37.33;31.00;;;;;2.86;80.56;102256.94;5138644;27;45435;-68
2023/01/21 01:15:51;;;;;;;;;56.33;38.67;;;;;2.81;80.51;102248.13;5142025;27;45199;-68
2023/01/21 01:18:16;;;;;;;;;59.67;43.00;;;;;2.94;80.13;102271.09;5142283;27;45231;-68
2023/01/21 01:20:42;;;;;;;;;53.33;37.67;;;;;2.96;80.13;102282.44;5141473;27;46348;-68
2023/01/21 01:23:08;;;;;;;;;48.67;38.00;;;;;3.04;79.79;102296.59;5141766;27;45426;-68
2023/01/21 01:25:36;;;;;;;;;54.33;38.67;;;;;2.66;80.22;102220.75;5140271;27;45302;-68
2023/01/21 01:28:02;;;;;;;;;38.33;35.00;;;;;3.07;79.70;102293.22;5141881;27;45468;-69
2023/01/21 01:30:28;;;;;;;;;53.67;38.00;;;;;3.09;79.67;102299.34;5141594;27;46509;-68
2023/01/21 01:32:53;;;;;;;;;55.00;43.33;;;;;3.07;80.17;102291.47;5141582;27;45398;-68
2023/01/21 01:35:18;;;;;;;;;58.33;41.33;;;;;3.12;79.72;102307.25;5141825;27;45438;-69
2023/01/21 01:37:44;;;;;;;;;49.67;40.33;;;;;3.08;79.81;102311.47;5141724;27;45460;-68
2023/01/21 01:40:10;;;;;;;;;44.00;33.67;;;;;3.07;79.86;102317.50;5141251;27;46383;-68
2023/01/21 01:42:35;;;;;;;;;45.33;38.33;;;;;3.09;79.36;102318.47;5139703;27;45385;-68
2023/01/21 01:45:04;;;;;;;;;52.33;40.00;;;;;3.09;79.45;102328.88;5141430;27;45469;-68
2023/01/21 01:47:38;;;;;;;;;50.67;42.33;;;;;3.01;79.49;102314.69;5141563;27;45313;-69
2023/01/21 01:50:09;;;;;;;;;49.67;41.33;;;;;3.05;79.38;102331.28;5141201;27;45460;-69
2023/01/21 01:52:35;;;;;;;;;49.00;38.00;;;;;2.99;78.97;102336.28;5139574;27;45484;-68
2023/01/21 01:55:02;;;;;;;;;55.67;42.33;;;;;2.95;79.33;102341.38;5141362;27;45386;-69
2023/01/21 01:57:36;;;;;;;;;57.67;45.00;;;;;2.88;79.99;102335.94;5139817;27;45365;-68
2023/01/21 02:00:05;;;;;;;;;57.33;42.33;;;;;2.95;80.04;102356.13;5141072;27;45346;-68
2023/01/21 02:02:31;;;;;;;;;45.33;38.00;;;;;2.99;79.83;102357.97;5139251;27;45370;-69
2023/01/21 02:05:01;;;;;;;;;47.33;39.67;;;;;3.00;79.50;102364.97;5099948;27;45382;-68
2023/01/21 02:07:31;;;;;;;;;62.00;42.00;;;;;2.94;79.54;102357.81;5099853;27;45488;-68
2023/01/21 02:09:57;;;;;;;;;52.33;37.67;;;;;2.97;79.34;102365.72;5099184;27;46361;-68
2023/01/21 02:12:23;;;;;;;;;51.33;39.00;;;;;2.96;79.45;102371.78;5099502;27;45722;-69
2023/01/21 02:14:49;;;;;;;;;57.67;42.67;;;;;2.84;79.27;102360.06;5099840;27;45231;-68
2023/01/21 02:17:33;;;;;;;;;47.67;37.67;;;;;2.77;79.50;102370.25;5137625;27;47206;-68
2023/01/21 02:20:25;;;;;;;;;58.00;40.33;;;;;2.71;79.97;102372.63;5140880;27;46522;-68
2023/01/21 02:22:50;;;;;;;;;49.67;42.00;;;;;2.67;79.93;102369.84;5140694;27;45352;-68
2023/01/21 02:25:40;;;;;;;;;56.00;42.33;;;;;2.58;80.33;102371.28;5140192;27;45388;-68
2023/01/21 02:28:39;;;;;;;;;59.33;43.67;;;;;2.52;81.20;102378.00;5140810;27;45263;-68
2023/01/21 02:31:31;;;;;;;;;58.33;42.00;;;;;2.47;81.12;102380.44;5138848;27;45320;-68
2023/01/21 02:33:59;;;;;;;;;47.67;39.67;;;;;2.44;81.43;102380.31;5140609;27;45413;-68
2023/01/21 02:36:34;;;;;;;;;47.33;39.33;;;;;2.40;81.42;102384.50;5140760;27;45444;-68
2023/01/21 02:39:14;;;;;;;;;35.33;32.00;;;;;2.32;82.25;102379.84;5140619;27;45514;-68
2023/01/21 02:42:23;;;;;;;;;55.00;39.33;;;;;2.33;82.14;102379.91;5140167;27;45604;-68
2023/01/21 02:45:18;;;;;;;;;57.33;41.67;;;;;2.30;82.28;102382.38;5140091;27;45410;-68
2023/01/21 02:48:15;;;;;;;;;59.00;40.33;;;;;2.22;82.51;102379.50;5139448;27;45357;-68
2023/01/21 02:50:47;;;;;;;;;54.00;40.00;;;;;2.22;82.62;102389.00;5099219;27;45401;-68
2023/01/21 02:53:27;;;;;;;;;56.33;40.67;;;;;2.17;82.21;102385.34;5098623;27;45477;-68
2023/01/21 02:55:56;;;;;;;;;60.67;42.33;;;;;2.20;82.39;102394.13;5098798;27;45391;-68
2023/01/21 02:58:27;;;;;;;;;59.33;42.00;;;;;2.15;82.93;102406.09;5103060;27;45536;-68
2023/01/21 03:01:10;;;;;;;;;48.67;39.67;;;;;2.09;83.00;102391.16;5116760;27;45567;-68
2023/01/21 03:04:04;;;;;;;;;57.67;42.67;;;;;2.11;83.40;102405.88;5118326;27;46817;-68
2023/01/21 03:06:40;;;;;;;;;66.67;45.33;;;;;2.13;83.34;102410.31;5121919;27;45438;-69
2023/01/21 03:09:27;;;;;;;;;49.00;38.33;;;;;2.05;82.90;102398.75;5119093;27;45627;-69
2023/01/21 03:12:02;;;;;;;;;61.67;46.00;;;;;2.04;83.74;102410.84;5119171;27;45321;-69
2023/01/21 03:17:43;;;;;;;;;52.33;38.33;;;;;1.94;83.46;102408.72;5117342;27;45346;-70
2023/01/21 03:20:19;;;;;;;;;63.00;48.67;;;;;1.87;83.80;102412.81;5119022;27;45462;-69
2023/01/21 03:22:47;;;;;;;;;57.00;41.33;;;;;1.95;83.47;102425.19;5118159;27;45385;-70
2023/01/21 03:25:13;;;;;;;;;56.00;44.67;;;;;1.89;83.51;102418.94;5128321;27;45405;-69
2023/01/21 03:27:43;;;;;;;;;55.33;42.00;;;;;1.92;83.08;102441.56;5118470;27;45527;-70
2023/01/21 03:30:15;;;;;;;;;62.67;46.00;;;;;1.89;83.93;102439.72;5115521;27;45448;-69
2023/01/21 03:32:44;;;;;;;;;61.33;46.67;;;;;1.71;83.19;102413.91;5117639;27;45354;-71
2023/01/21 03:35:15;;;;;;;;;62.67;45.00;;;;;1.77;83.58;102427.94;5116419;27;47054;-69
2023/01/21 03:38:10;;;;;;;;;55.67;41.33;;;;;1.65;83.18;102410.16;5117379;27;45325;-70
2023/01/21 03:40:42;;;;;;;;;62.00;44.67;;;;;1.86;83.70;102451.66;5118033;27;45374;-70
2023/01/21 03:43:08;;;;;;;;;55.67;42.00;;;;;1.79;84.16;102444.47;5136163;27;45555;-70
2023/01/21 03:46:26;;;;;;;;;61.33;41.33;;;;;1.88;83.45;102450.91;5139299;27;45558;-69
2023/01/21 03:49:03;;;;;;;;;57.33;42.67;;;;;1.84;83.12;102445.53;5032774;28;45440;-70
2023/01/21 03:51:35;;;;;;;;;57.33;41.67;;;;;1.82;83.15;102452.41;5029497;28;45390;-69
2023/01/21 03:54:00;;;;;;;;;57.67;45.00;;;;;1.79;83.39;102447.06;5033641;28;45689;-69
2023/01/21 03:56:26;;;;;;;;;52.00;41.33;;;;;1.76;83.42;102444.31;5032998;28;46496;-69
2023/01/21 03:58:52;;;;;;;;;57.67;42.67;;;;;1.69;83.39;102436.28;5033159;28;45544;-69
2023/01/21 04:01:17;;;;;;;;;62.33;47.00;;;;;1.74;83.31;102439.06;5033392;28;45478;-69
2023/01/21 04:03:43;;;;;;;;;52.67;41.33;;;;;1.78;83.30;102448.75;5033719;28;45266;-70
2023/01/21 04:06:19;;;;;;;;;60.00;45.67;;;;;1.78;83.39;102451.38;5032250;28;46013;-70
2023/01/21 04:08:45;;;;;;;;;58.00;43.33;;;;;1.72;83.19;102440.72;5032576;28;45572;-70
2023/01/21 04:11:11;;;;;;;;;63.00;43.67;;;;;1.77;83.51;102444.38;5033527;28;45453;-70
2023/01/21 04:13:36;;;;;;;;;63.00;44.00;;;;;1.64;83.06;102429.13;5033284;28;45406;-70
2023/01/21 04:16:03;;;;;;;;;59.00;43.00;;;;;1.76;83.10;102454.72;5032731;28;46408;-70
2023/01/21 04:18:28;;;;;;;;;69.33;45.00;;;;;1.73;83.18;102451.19;5029637;28;46221;-70
2023/01/21 04:20:54;;;;;;;;;58.00;41.00;;;;;1.68;83.20;102449.22;5032248;28;45661;-70
2023/01/21 04:23:19;;;;;;;;;49.33;38.33;;;;;1.68;83.08;102450.09;5099552;27;45382;-71
2023/01/21 04:25:47;;;;;;;;;53.33;43.00;;;;;1.68;83.46;102451.81;5116730;27;45578;-71
2023/01/21 04:28:12;;;;;;;;;55.33;41.67;;;;;1.66;83.51;102450.88;5117143;27;45169;-70
2023/01/21 04:30:37;;;;;;;;;58.00;43.33;;;;;1.65;83.47;102452.56;5118241;27;45539;-70
2023/01/21 04:33:03;;;;;;;;;57.67;43.67;;;;;1.66;83.50;102454.34;5118177;27;45509;-70
2023/01/21 04:35:28;;;;;;;;;57.00;42.67;;;;;1.64;83.21;102458.59;5117542;27;46373;-70
2023/01/21 04:37:53;;;;;;;;;59.67;44.00;;;;;1.63;83.12;102456.81;5120422;27;45429;-70
2023/01/21 04:40:19;;;;;;;;;60.33;45.33;;;;;1.65;83.71;102470.75;5138864;27;45239;-69
2023/01/21 04:42:44;;;;;;;;;58.00;42.33;;;;;1.66;83.58;102467.31;5121829;27;45418;-69
2023/01/21 04:45:10;;;;;;;;;66.00;45.33;;;;;1.67;83.37;102473.41;5117595;27;45633;-69
2023/01/21 04:47:35;;;;;;;;;53.33;44.00;;;;;1.69;83.49;102466.56;5117920;27;45330;-69
2023/01/21 04:50:03;;;;;;;;;59.00;42.33;;;;;1.66;83.29;102471.66;5120752;27;45245;-70
2023/01/21 04:52:29;;;;;;;;;68.67;44.67;;;;;1.61;83.21;102476.63;5120816;27;45482;-70
2023/01/21 04:54:54;;;;;;;;;57.00;42.67;;;;;1.59;83.60;102469.63;5121727;27;46000;-70
2023/01/21 04:57:19;;;;;;;;;57.33;41.00;;;;;1.37;83.60;102429.78;5142021;27;45322;-71
2023/01/21 04:59:45;;;;;;;;;64.00;42.33;;;;;1.62;83.06;102485.31;5142270;27;45380;-70
2023/01/21 05:02:10;;;;;;;;;58.33;46.67;;;;;1.58;83.20;102478.22;5142343;27;45690;-69
2023/01/21 05:04:36;;;;;;;;;62.00;41.67;;;;;1.47;82.97;102470.00;5141890;27;45774;-70
2023/01/21 05:07:01;;;;;;;;;61.33;47.00;;;;;1.51;83.42;102484.84;5124868;27;45566;-70
2023/01/21 05:09:27;;;;;;;;;55.67;42.67;;;;;1.47;83.46;102482.97;5121116;27;45610;-70
2023/01/21 05:11:52;;;;;;;;;54.67;43.33;;;;;1.53;83.52;102497.06;5120769;27;45501;-70
2023/01/21 05:14:18;;;;;;;;;57.33;41.33;;;;;1.54;83.40;102493.66;5132930;27;46419;-70
2023/01/21 05:16:43;;;;;;;;;59.33;44.33;;;;;1.51;83.29;102503.91;5141850;27;45389;-71
2023/01/21 05:19:09;;;;;;;;;53.67;42.67;;;;;1.44;83.16;102488.91;5142117;27;45219;-70
2023/01/21 05:21:34;;;;;;;;;56.67;42.00;;;;;1.49;83.77;102509.84;5141908;27;45464;-70
2023/01/21 05:23:59;;;;;;;;;59.00;43.33;;;;;1.46;83.66;102497.63;5141524;27;47248;-70
2023/01/21 05:26:25;;;;;;;;;66.67;46.00;;;;;1.39;83.79;102496.50;5125244;27;45993;-71
2023/01/21 05:28:50;;;;;;;;;67.33;49.33;;;;;1.39;83.75;102500.78;5120709;27;45392;-70
2023/01/21 05:31:15;;;;;;;;;64.67;50.00;;;;;1.46;83.68;102512.31;5119783;27;45526;-70
2023/01/21 05:33:42;;;;;;;;;61.67;46.00;;;;;1.44;83.61;102517.44;5120794;27;45587;-70
2023/01/21 05:36:08;;;;;;;;;61.67;47.00;;;;;1.42;83.59;102513.88;5119944;27;45341;-70
2023/01/21 05:38:34;;;;;;;;;65.00;49.00;;;;;1.42;83.59;102532.06;5120777;27;45435;-70
2023/01/21 05:41:01;;;;;;;;;64.00;46.00;;;;;1.25;83.76;102507.97;5120847;27;45522;-70
2023/01/21 05:43:26;;;;;;;;;52.00;42.67;;;;;1.43;83.74;102538.16;5120694;27;46482;-69
2023/01/21 05:45:52;;;;;;;;;51.67;42.00;;;;;1.33;83.86;102532.53;5117399;27;45834;-69
2023/01/21 05:48:18;;;;;;;;;64.67;46.67;;;;;1.38;83.94;102546.63;5120845;27;45475;-69
2023/01/21 05:50:43;;;;;;;;;68.00;49.67;;;;;1.29;84.00;102541.00;5120879;27;45192;-69
2023/01/21 05:53:09;;;;;;;;;65.00;47.67;;;;;1.27;83.81;102540.06;5120429;27;46356;-69
2023/01/21 05:55:36;;;;;;;;;60.33;42.67;;;;;1.33;84.35;102557.59;5120637;27;45312;-69
2023/01/21 05:58:01;;;;;;;;;57.50;45.00;;;;;1.31;84.09;102554.06;5120669;27;45251;-69
2023/01/21 06:00:27;;;;;;;;;64.67;46.00;;;;;1.31;83.80;102565.34;5118963;27;45402;-69
2023/01/21 06:02:52;;;;;;;;;62.67;45.00;;;;;1.31;83.72;102567.03;5119994;27;45455;-70
2023/01/21 06:05:17;;;;;;;;;66.00;47.00;;;;;1.24;84.03;102555.50;5136817;27;45295;-70
2023/01/21 06:07:43;;;;;;;;;53.00;41.00;;;;;1.31;83.84;102573.13;5141331;27;45334;-70
2023/01/21 06:10:09;;;;;;;;;62.33;43.33;;;;;1.15;84.09;102560.28;5141373;27;45500;-70
2023/01/21 06:12:34;;;;;;;;;74.33;52.00;;;;;1.24;84.65;102565.00;5140974;27;46194;-70
2023/01/21 06:14:59;;;;;;;;;63.00;44.67;;;;;1.25;84.28;102583.22;5136094;27;45439;-70
2023/01/21 06:17:25;;;;;;;;;66.33;47.00;;;;;1.23;84.15;102582.25;5120174;27;45367;-70
2023/01/21 06:19:50;;;;;;;;;71.00;53.00;;;;;1.21;84.41;102583.91;5122952;27;45452;-70
2023/01/21 06:22:16;;;;;;;;;62.33;46.67;;;;;1.19;84.24;102582.94;5140667;27;46653;-70
2023/01/21 06:24:41;;;;;;;;;62.67;47.67;;;;;1.24;83.83;102602.19;5134547;27;45556;-70
2023/01/21 06:27:07;;;;;;;;;64.33;47.67;;;;;1.16;84.38;102586.28;5120071;27;45489;-70
2023/01/21 06:29:35;;;;;;;;;70.33;50.00;;;;;1.26;84.29;102607.47;5119313;27;45354;-70
2023/01/21 06:32:00;;;;;;;;;63.33;45.67;;;;;1.23;83.87;102612.50;5118856;27;45477;-70
2023/01/21 06:34:26;;;;;;;;;69.00;46.33;;;;;1.09;84.28;102589.41;5118901;27;45671;-70
2023/01/21 06:36:51;;;;;;;;;78.00;53.33;;;;;1.15;84.31;102612.16;5119056;27;45378;-70
2023/01/21 06:39:16;;;;;;;;;67.67;50.00;;;;;1.16;84.14;102619.09;5140796;27;45316;-70
2023/01/21 06:41:42;;;;;;;;;63.33;48.67;;;;;1.17;84.72;102628.69;5140383;27;45515;-70
2023/01/21 06:44:07;;;;;;;;;62.00;46.67;;;;;1.20;84.27;102631.41;5140490;27;45465;-70
2023/01/21 06:46:32;;;;;;;;;72.67;50.00;;;;;1.13;84.46;102640.59;5125571;27;46138;-70
2023/01/21 06:48:58;;;;;;;;;67.33;48.00;;;;;1.12;84.15;102630.16;5120023;27;45513;-70
2023/01/21 06:51:23;;;;;;;;;61.33;49.67;;;;;1.08;84.28;102621.34;5118524;27;46650;-70
2023/01/21 06:53:49;;;;;;;;;67.67;53.67;;;;;1.15;83.97;102644.19;5120849;27;45320;-70
2023/01/21 06:56:14;;;;;;;;;65.67;51.67;;;;;1.13;84.16;102639.72;5140510;27;45415;-70
2023/01/21 06:58:39;;;;;;;;;68.00;51.33;;;;;1.10;84.11;102645.66;5140433;27;45251;-70
2023/01/21 07:01:05;;;;;;;;;55.33;38.67;;;;;1.14;84.35;102652.75;5139841;27;46452;-70
2023/01/21 07:03:30;;;;;;;;;70.67;50.00;;;;;1.07;84.17;102649.81;5128587;27;45595;-70
2023/01/21 07:05:55;;;;;;;;;65.33;48.33;;;;;0.99;84.75;102650.34;5119424;27;45386;-70
2023/01/21 07:08:21;;;;;;;;;68.67;51.67;;;;;1.11;84.79;102669.91;5118814;27;45447;-70
2023/01/21 07:10:46;;;;;;;;;63.67;49.00;;;;;1.07;84.68;102663.66;5118930;27;46083;-70
2023/01/21 07:13:11;;;;;;;;;66.00;49.67;;;;;1.09;84.30;102669.84;5139886;27;45393;-69
2023/01/21 07:15:37;;;;;;;;;74.00;54.33;;;;;1.01;85.09;102663.38;5139769;27;45456;-70
2023/01/21 07:18:02;;;;;;;;;63.67;48.00;;;;;0.96;84.59;102657.06;5140407;27;45433;-70
2023/01/21 07:20:28;;;;;;;;;57.00;44.00;;;;;1.05;84.77;102678.28;5130093;27;45329;-69
2023/01/21 07:22:53;;;;;;;;;74.33;55.67;;;;;0.95;84.80;102670.88;5118903;27;45576;-70
2023/01/21 07:25:18;;;;;;;;;66.33;50.00;;;;;0.99;85.38;102678.88;5118291;27;45356;-70
2023/01/21 07:27:44;;;;;;;;;66.33;49.33;;;;;1.00;84.70;102682.34;5118357;27;45202;-70
2023/01/21 07:30:15;;;;;;;;;71.67;52.00;;;;;1.03;84.47;102686.00;5119048;27;45188;-70
2023/01/21 07:32:40;;;;;;;;;70.67;53.67;;;;;0.94;84.59;102674.28;5118886;27;45362;-70
2023/01/21 07:35:06;;;;;;;;;70.33;53.33;;;;;1.00;84.43;102696.22;5118767;27;45601;-70
2023/01/21 07:37:31;;;;;;;;;66.33;51.00;;;;;1.01;84.45;102700.56;5119431;27;45361;-70
2023/01/21 07:39:57;;;;;;;;;67.33;50.00;;;;;1.01;84.66;102704.88;5118651;27;46674;-70
2023/01/21 07:42:22;;;;;;;;;68.33;50.33;;;;;1.01;84.50;102705.75;5121370;27;45338;-70
2023/01/21 07:44:47;;;;;;;;;63.67;48.00;;;;;0.97;84.53;102708.13;5139568;27;45492;-68
2023/01/21 07:47:13;;;;;;;;;71.00;51.33;;;;;1.01;84.38;102717.84;5139341;27;45422;-68
2023/01/21 07:49:39;;;;;;;;;71.00;52.00;;;;;1.05;84.53;102722.38;5139594;27;46392;-68
2023/01/21 07:52:05;;;;;;;;;71.00;52.00;;;;;0.98;84.13;102715.13;5139347;27;45396;-68
2023/01/21 07:54:30;;;;;;;;;73.67;54.33;;;;;0.99;84.98;102722.97;5117155;27;45464;-68
2023/01/21 07:56:56;;;;;;;;;67.00;49.67;;;;;0.96;84.66;102709.84;5118931;27;45470;-68
2023/01/21 07:59:21;;;;;;;;;66.67;46.67;;;;;1.07;84.21;102727.63;5128864;27;45748;-68
2023/01/21 08:01:46;;;;;;;;;68.00;50.00;;;;;1.12;84.21;102739.13;5123086;27;45563;-68
2023/01/21 08:04:12;;;;;;;;;67.33;50.33;;;;;1.08;83.95;102727.72;5117756;27;45399;-68
2023/01/21 08:06:40;;;;;;;;;72.00;50.00;;;;;1.16;84.42;102741.97;5117435;27;45501;-68
2023/01/21 08:09:05;;;;;;;;;65.33;49.67;;;;;1.19;83.86;102742.09;5117983;27;45458;-68
2023/01/21 08:11:31;;;;;;;;;69.00;51.00;;;;;1.26;83.82;102748.44;5118289;27;45454;-68
2023/01/21 08:13:56;;;;;;;;;70.67;51.33;;;;;1.00;84.02;102698.81;5116906;27;45493;-68
2023/01/21 08:16:21;;;;;;;;;61.00;46.00;;;;;1.25;83.99;102732.81;5134429;27;45474;-68
2023/01/21 08:18:47;;;;;;;;;74.00;52.67;;;;;1.38;83.23;102758.56;5131355;27;47320;-68
2023/01/21 08:21:12;;;;;;;;;60.00;46.67;;;;;1.40;82.80;102764.69;5118212;27;45331;-68
2023/01/21 08:23:37;;;;;;;;;73.00;52.67;;;;;1.46;82.68;102766.69;5117604;27;45390;-68
2023/01/21 08:26:04;;;;;;;;;73.00;51.67;;;;;1.60;82.95;102781.22;5117582;27;45511;-68
2023/01/21 08:28:30;;;;;;;;;73.00;51.33;;;;;1.69;82.75;102770.38;5118063;27;47371;-68
2023/01/21 08:31:08;;;;;;;;;73.67;53.67;;;;;1.82;82.46;102779.63;5117369;27;45584;-68
2023/01/21 08:33:34;;;;;;;;;65.00;50.67;;;;;2.02;81.75;102777.91;5097550;27;45461;-68
2023/01/21 08:36:01;;;;;;;;;65.33;50.33;;;;;2.16;80.68;102784.63;5097411;27;45312;-68
2023/01/21 08:38:27;;;;;;;;;70.33;51.33;;;;;2.16;79.98;102778.56;5117725;27;46059;-68
2023/01/21 08:40:52;;;;;;;;;73.67;53.67;;;;;2.05;79.64;102778.97;5117919;27;45337;-68
2023/01/21 08:43:18;;;;;;;;;66.33;47.67;;;;;2.01;79.94;102777.03;5117220;27;45422;-68
2023/01/21 08:45:43;;;;;;;;;66.67;50.33;;;;;2.02;79.82;102796.09;5115873;27;45301;-68
2023/01/21 08:48:08;;;;;;;;;63.33;47.33;;;;;1.98;80.68;102794.22;5114123;27;45591;-68
2023/01/21 08:50:34;;;;;;;;;74.33;54.00;;;;;2.00;80.87;102793.44;5117874;27;45160;-68
2023/01/21 08:52:59;;;;;;;;;64.00;47.33;;;;;1.99;80.32;102786.50;5118181;27;45422;-68
2023/01/21 08:55:25;;;;;;;;;73.00;52.33;;;;;2.03;80.63;102798.81;5118048;27;45354;-68
2023/01/21 08:57:52;;;;;;;;;69.00;50.67;;;;;2.20;80.89;102814.25;5117569;27;46391;-68
2023/01/21 09:00:19;;;;;;;;;71.67;48.00;;;;;2.25;80.16;102820.53;5115400;27;45544;-68
2023/01/21 09:02:44;;;;;;;;;64.67;49.00;;;;;2.16;80.21;102800.22;5127467;27;45465;-68
2023/01/21 09:05:09;;;;;;;;;65.00;48.67;;;;;2.36;80.32;102826.25;5138697;27;45363;-68
2023/01/21 09:07:35;;;;;;;;;66.33;50.33;;;;;2.43;78.92;102817.88;5118421;27;46210;-69
2023/01/21 09:10:02;;;;;;;;;66.67;48.33;;;;;2.57;78.91;102829.78;5117519;27;45429;-68
2023/01/21 09:12:27;;;;;;;;;73.67;51.00;;;;;2.61;78.45;102818.72;5117039;27;45421;-68
2023/01/21 09:14:53;;;;;;;;;69.00;46.67;;;;;2.91;77.38;102826.03;5117532;27;45428;-69
2023/01/21 09:17:18;;;;;;;;;74.33;51.00;;;;;3.41;75.01;102833.28;5121614;27;45385;-69
2023/01/21 09:19:43;;;;;;;;;66.00;46.33;;;;;3.41;73.31;102833.28;5137917;27;45438;-69
2023/01/21 09:22:09;;;;;;;;;61.00;44.67;;;;;3.45;74.70;102827.38;5138231;27;45569;-68
2023/01/21 09:24:34;;;;;;;;;61.67;47.00;;;;;3.49;73.72;102842.31;5138348;27;45818;-69
2023/01/21 09:26:59;;;;;;;;;53.00;39.00;;;;;3.73;71.38;102834.59;5119868;27;45511;-68
2023/01/21 09:29:25;;;;;;;;;70.33;46.00;;;;;4.15;71.14;102839.66;5114080;27;45479;-68
2023/01/21 09:31:50;;;;;;;;;62.33;47.00;;;;;4.10;71.67;102842.94;5116075;27;45542;-69
2023/01/21 09:34:15;;;;;;;;;62.33;46.67;;;;;4.76;69.71;102850.53;5119543;27;45422;-69
2023/01/21 09:36:41;;;;;;;;;65.00;47.67;;;;;4.55;68.70;102831.53;5121400;27;46446;-68
2023/01/21 09:39:06;;;;;;;;;58.33;43.67;;;;;4.43;68.77;102853.72;5120858;27;45385;-69
2023/01/21 09:41:44;;;;;;;;;65.33;47.00;;;;;4.23;69.86;102850.38;5120815;27;45394;-68
2023/01/21 09:44:19;;;;;;;;;57.67;46.33;;;;;4.40;70.61;102850.09;5119477;27;45421;-68
2023/01/21 09:46:54;;;;;;;;;55.00;43.00;;;;;4.59;70.24;102854.25;5120424;27;45450;-68
2023/01/21 09:49:37;;;;;;;;;57.00;45.00;;;;;4.60;66.90;102845.63;5120237;27;45434;-68
2023/01/21 09:52:02;;;;;;;;;61.67;46.00;;;;;4.88;66.88;102860.53;5119929;27;46058;-68
2023/01/21 09:54:30;;;;;;;;;56.33;43.00;;;;;5.20;68.11;102866.88;5119238;27;45390;-68
2023/01/21 09:57:04;;;;;;;;;61.00;42.67;;;;;5.40;65.51;102867.53;5120242;27;47048;-68
2023/01/21 09:59:55;;;;;;;;;59.67;44.67;;;;;6.12;62.49;102870.66;5118438;27;45310;-69
2023/01/21 10:02:29;;;;;;;;;56.67;43.67;;;;;7.23;64.06;102879.00;5119625;27;45407;-68
2023/01/21 10:05:21;;;;;;;;;50.33;38.67;;;;;8.51;61.71;102884.56;5120295;27;45437;-69
2023/01/21 10:08:21;;;;;;;;;47.67;37.67;;;;;8.84;55.13;102874.69;5120035;27;45493;-68
2023/01/21 10:11:06;;;;;;;;;52.33;40.33;;;;;9.14;59.49;102886.63;5119059;27;45663;-67
2023/01/21 10:14:24;;;;;;;;;46.67;36.67;;;;;8.49;53.36;102888.00;5120142;27;45449;-67
2023/01/21 10:17:11;;;;;;;;;49.33;41.33;;;;;7.87;55.74;102894.53;5056818;28;45437;-67
2023/01/21 10:19:46;;;;;;;;;54.33;41.00;;;;;7.30;56.34;102899.25;5056135;28;45546;-66
2023/01/21 10:22:17;;;;;;;;;54.33;43.33;;;;;6.85;58.92;102898.91;5053899;28;45564;-66
2023/01/21 10:24:51;;;;;;;;;54.33;41.00;;;;;6.41;59.34;102902.91;5054430;28;45381;-66
2023/01/21 10:27:19;;;;;;;;;53.00;38.67;;;;;6.00;59.60;102893.81;5056541;28;45441;-67
2023/01/21 10:29:49;;;;;;;;;39.67;35.67;;;;;5.62;61.23;102891.75;5055007;28;45628;-67
2023/01/21 10:32:21;;;;;;;;;53.67;39.00;;;;;5.49;61.40;102897.41;5053063;28;45499;-69
2023/01/21 10:34:52;;;;;;;;;53.67;41.67;;;;;5.31;62.93;102890.72;5076544;28;45520;-68
2023/01/21 10:37:33;;;;;;;;;56.00;42.00;;;;;5.28;62.83;102901.06;5064734;28;45646;-66
2023/01/21 10:40:12;;;;;;;;;40.33;36.00;;;;;5.36;65.14;102911.81;5076181;28;45403;-66
2023/01/21 10:42:47;;;;;;;;;52.33;41.00;;;;;5.50;63.96;102913.13;5057358;28;45500;-66
2023/01/21 10:45:29;;;;;;;;;54.67;41.67;;;;;5.57;63.15;102911.59;5051493;28;45483;-68
2023/01/21 10:48:16;;;;;;;;;52.00;39.67;;;;;5.64;63.73;102915.31;5092761;27;45483;-67
2023/01/21 10:50:50;;;;;;;;;57.33;41.00;;;;;5.54;62.87;102915.00;5118289;27;45302;-65
2023/01/21 10:53:30;;;;;;;;;52.33;39.33;;;;;5.58;63.14;102916.88;5113783;27;45446;-66
2023/01/21 10:56:04;;;;;;;;;54.00;39.00;;;;;5.63;62.94;102911.81;5117726;27;45244;-68
2023/01/21 10:58:40;;;;;;;;;51.00;41.67;;;;;5.53;61.98;102913.25;5115807;27;45536;-65
2023/01/21 11:01:17;;;;;;;;;51.33;42.00;;;;;5.43;62.70;102899.81;5117074;27;45475;-65
2023/01/21 11:03:48;;;;;;;;;58.33;39.33;;;;;5.49;62.79;102913.06;5118629;27;45556;-65
2023/01/21 11:06:16;;;;;;;;;49.67;39.00;;;;;5.43;63.28;102916.38;5124290;27;45420;-65
2023/01/21 11:08:46;;;;;;;;;44.33;37.33;;;;;5.29;62.96;102904.59;5137748;27;45496;-66
2023/01/21 11:11:14;;;;;;;;;54.00;40.00;;;;;4.88;62.17;102895.34;5139880;27;46763;-65
2023/01/21 11:13:40;;;;;;;;;47.33;38.67;;;;;4.85;63.26;102905.69;5136028;27;45383;-66
2023/01/21 11:16:06;;;;;;;;;48.00;38.00;;;;;4.77;64.10;102903.63;5116548;27;45462;-67
2023/01/21 11:18:39;;;;;;;;;54.33;38.67;;;;;4.73;64.66;102904.34;5119237;27;45544;-67
2023/01/21 11:21:19;;;;;;;;;55.00;39.33;;;;;4.67;64.41;102905.03;5118377;27;45264;-67
2023/01/21 11:23:59;;;;;;;;;52.67;38.00;;;;;4.63;65.08;102909.25;5115309;27;45465;-67
2023/01/21 11:26:31;;;;;;;;;43.67;36.67;;;;;4.60;64.89;102913.44;5116456;27;45473;-67
2023/01/21 11:29:14;;;;;;;;;55.00;43.00;;;;;4.48;64.62;102899.13;5109265;27;45319;-66